Time;durP1;ratioP1;P1;durP2;ratioP2;P2;SDS_P1;SDS_P2;PMS_P1;PMS_P2;Temp;Humidity;BMP_temperature;BMP_pressure;BME280_temperature;BME280_humidity;BME280_pressure;Samples;Min_cycle;Max_cycle;Signal;HPM_P1;HPM_P2
2023/05/08 00:02:23;;;;;;;4.60;4.20;;;;;;;;;;4972191;28;20219;-84
2023/05/08 00:04:51;;;;;;;4.97;4.40;;;;;;;;;;4988306;28;20224;-84
2023/05/08 00:07:19;;;;;;;4.53;4.13;;;;;;;;;;4995023;28;20225;-85
2023/05/08 00:09:55;;;;;;;4.43;4.13;;;;;;;;;;4984203;28;20269;-85
2023/05/08 00:12:23;;;;;;;4.77;4.17;;;;;;;;;;4966622;28;20231;-85
2023/05/08 00:14:49;;;;;;;4.90;4.50;;;;;;;;;;4995432;28;20243;-86
2023/05/08 00:17:15;;;;;;;4.40;4.10;;;;;;;;;;4984071;28;20223;-84
2023/05/08 00:19:43;;;;;;;4.93;4.50;;;;;;;;;;4984776;28;20213;-85
2023/05/08 00:22:09;;;;;;;4.47;4.17;;;;;;;;;;4961893;28;20610;-86
2023/05/08 00:24:40;;;;;;;4.40;4.00;;;;;;;;;;4984545;28;20232;-84
2023/05/08 00:27:07;;;;;;;4.67;4.27;;;;;;;;;;4953390;28;20218;-84
2023/05/08 00:29:33;;;;;;;4.53;4.13;;;;;;;;;;4966685;28;20271;-85
2023/05/08 00:32:01;;;;;;;4.57;4.20;;;;;;;;;;4954587;28;20232;-85
2023/05/08 00:34:26;;;;;;;4.70;4.40;;;;;;;;;;4969858;28;20228;-84
2023/05/08 00:36:55;;;;;;;4.90;4.50;;;;;;;;;;4985337;28;20333;-84
2023/05/08 00:39:23;;;;;;;5.03;4.47;;;;;;;;;;4945405;28;20218;-84
2023/05/08 00:41:51;;;;;;;4.97;4.47;;;;;;;;;;4971500;28;20221;-84
2023/05/08 00:44:16;;;;;;;4.60;4.30;;;;;;;;;;4983581;28;20222;-85
2023/05/08 00:46:44;;;;;;;4.63;4.23;;;;;;;;;;4996833;28;20226;-85
2023/05/08 00:49:13;;;;;;;5.17;4.77;;;;;;;;;;4974319;28;20238;-85
2023/05/08 00:51:43;;;;;;;4.93;4.53;;;;;;;;;;4975575;28;20219;-85
2023/05/08 00:54:14;;;;;;;4.80;4.40;;;;;;;;;;4998514;28;20489;-84
2023/05/08 00:56:39;;;;;;;4.50;4.20;;;;;;;;;;4959786;28;20222;-86
2023/05/08 00:59:13;;;;;;;5.00;4.60;;;;;;;;;;4985775;28;20217;-84
2023/05/08 01:01:41;;;;;;;5.33;4.87;;;;;;;;;;4974178;28;20227;-86
2023/05/08 01:04:12;;;;;;;4.90;4.50;;;;;;;;;;4971175;28;20318;-84
2023/05/08 01:06:37;;;;;;;5.10;4.60;;;;;;;;;;4951893;28;20229;-85
2023/05/08 01:09:03;;;;;;;5.47;4.97;;;;;;;;;;4979918;28;20282;-83
2023/05/08 01:11:51;;;;;;;5.27;4.77;;;;;;;;;;4950096;28;20318;-85
2023/05/08 01:14:32;;;;;;;5.10;4.73;;;;;;;;;;4968248;28;20252;-84
2023/05/08 01:17:09;;;;;;;5.27;4.87;;;;;;;;;;4993331;28;20217;-85
2023/05/08 01:20:16;;;;;;;5.17;4.77;;;;;;;;;;4988646;28;20228;-84
2023/05/08 01:23:12;;;;;;;5.40;4.87;;;;;;;;;;5006067;28;20273;-83
2023/05/08 01:26:13;;;;;;;5.43;4.93;;;;;;;;;;5002434;28;20229;-84
2023/05/08 01:29:13;;;;;;;5.00;4.60;;;;;;;;;;4989717;28;20233;-85
2023/05/08 01:32:12;;;;;;;5.60;4.90;;;;;;;;;;4983473;28;20329;-84
2023/05/08 01:34:52;;;;;;;5.40;5.00;;;;;;;;;;4983536;28;20225;-84
2023/05/08 01:37:22;;;;;;;5.80;5.40;;;;;;;;;;4947510;28;20228;-85
2023/05/08 01:39:57;;;;;;;6.00;5.50;;;;;;;;;;4980919;28;20305;-85
2023/05/08 01:42:53;;;;;;;6.10;5.63;;;;;;;;;;4966918;28;20240;-84
2023/05/08 01:45:31;;;;;;;6.00;5.50;;;;;;;;;;4981039;28;20709;-86
2023/05/08 01:48:11;;;;;;;6.23;5.83;;;;;;;;;;4969830;28;20215;-84
2023/05/08 01:50:57;;;;;;;6.80;6.17;;;;;;;;;;4981343;28;20291;-84
2023/05/08 01:53:32;;;;;;;7.00;6.50;;;;;;;;;;4977291;28;20240;-84
2023/05/08 01:56:09;;;;;;;6.73;6.20;;;;;;;;;;4987921;28;20311;-85
2023/05/08 01:58:36;;;;;;;6.87;6.37;;;;;;;;;;4964369;28;20220;-84
2023/05/08 02:01:01;;;;;;;7.37;6.67;;;;;;;;;;4949910;28;20245;-84
2023/05/08 02:03:32;;;;;;;7.20;6.60;;;;;;;;;;4950987;28;20220;-84
2023/05/08 02:06:00;;;;;;;6.77;6.27;;;;;;;;;;4968134;28;20227;-84
2023/05/08 02:08:28;;;;;;;6.93;6.43;;;;;;;;;;4972841;28;20232;-84
2023/05/08 02:10:54;;;;;;;6.83;6.23;;;;;;;;;;4989230;28;20225;-85
2023/05/08 02:13:20;;;;;;;6.87;6.27;;;;;;;;;;4967450;28;20226;-85
2023/05/08 02:15:48;;;;;;;7.03;6.43;;;;;;;;;;4964920;28;20210;-85
2023/05/08 02:18:16;;;;;;;6.93;6.33;;;;;;;;;;4985210;28;20221;-84
2023/05/08 02:20:46;;;;;;;6.57;6.00;;;;;;;;;;4981040;28;20225;-84
2023/05/08 02:23:17;;;;;;;6.33;5.83;;;;;;;;;;4986810;28;20241;-84
2023/05/08 02:25:45;;;;;;;6.20;5.70;;;;;;;;;;4986137;28;20308;-84
2023/05/08 02:28:11;;;;;;;5.97;5.57;;;;;;;;;;4948936;28;20213;-85
2023/05/08 02:30:42;;;;;;;6.20;5.70;;;;;;;;;;4986674;28;20236;-85
2023/05/08 02:33:08;;;;;;;6.57;6.00;;;;;;;;;;4999504;28;20229;-83
2023/05/08 02:35:34;;;;;;;5.87;5.27;;;;;;;;;;4995344;28;20225;-84
2023/05/08 02:38:00;;;;;;;5.80;5.30;;;;;;;;;;4980435;28;20229;-85
2023/05/08 02:40:27;;;;;;;6.27;5.67;;;;;;;;;;4994037;28;20233;-83
2023/05/08 02:42:54;;;;;;;6.13;5.53;;;;;;;;;;4951178;28;20221;-86
2023/05/08 02:45:26;;;;;;;6.00;5.60;;;;;;;;;;4982172;28;20775;-85
2023/05/08 02:48:04;;;;;;;6.10;5.60;;;;;;;;;;4972691;28;20356;-85
2023/05/08 02:50:42;;;;;;;6.03;5.53;;;;;;;;;;4988276;28;20243;-84
2023/05/08 02:53:13;;;;;;;6.10;5.60;;;;;;;;;;4994159;28;20234;-84
2023/05/08 02:55:41;;;;;;;5.93;5.43;;;;;;;;;;4969186;28;20312;-83
2023/05/08 02:58:23;;;;;;;6.07;5.67;;;;;;;;;;4993480;28;20213;-84
2023/05/08 03:00:59;;;;;;;5.70;5.20;;;;;;;;;;4970258;28;20217;-84
2023/05/08 03:04:09;;;;;;;5.97;5.47;;;;;;;;;;4992242;28;20222;-84
2023/05/08 03:06:41;;;;;;;5.67;5.27;;;;;;;;;;4969749;28;20241;-83
2023/05/08 03:09:16;;;;;;;5.87;5.37;;;;;;;;;;4986753;28;20226;-84
2023/05/08 03:11:42;;;;;;;5.83;5.33;;;;;;;;;;4980525;28;20231;-85
2023/05/08 03:14:13;;;;;;;5.90;5.50;;;;;;;;;;4978158;28;20217;-83
2023/05/08 03:16:38;;;;;;;5.70;5.30;;;;;;;;;;4988731;28;20229;-84
2023/05/08 03:19:14;;;;;;;6.33;5.83;;;;;;;;;;4969135;28;20217;-83
2023/05/08 03:21:50;;;;;;;6.93;6.00;;;;;;;;;;4981918;28;20206;-84
2023/05/08 03:24:28;;;;;;;5.40;5.00;;;;;;;;;;5008295;28;20239;-84
2023/05/08 03:26:57;;;;;;;6.30;5.70;;;;;;;;;;4971978;28;20771;-84
2023/05/08 03:29:23;;;;;;;6.70;6.13;;;;;;;;;;4984714;28;20229;-84
2023/05/08 03:31:51;;;;;;;6.07;5.57;;;;;;;;;;4990887;28;20276;-84
2023/05/08 03:34:19;;;;;;;5.97;5.47;;;;;;;;;;4956683;28;20646;-83
2023/05/08 03:36:49;;;;;;;5.83;5.43;;;;;;;;;;4971055;28;20251;-84
2023/05/08 03:39:15;;;;;;;6.23;5.73;;;;;;;;;;4984658;28;20229;-84
2023/05/08 03:41:40;;;;;;;5.90;5.50;;;;;;;;;;4988804;28;20235;-84
2023/05/08 03:44:09;;;;;;;6.50;5.90;;;;;;;;;;4985255;28;20216;-84
2023/05/08 03:46:34;;;;;;;6.50;5.90;;;;;;;;;;4968003;28;20218;-85
2023/05/08 03:49:03;;;;;;;6.73;6.03;;;;;;;;;;4984366;28;20630;-85
2023/05/08 03:51:28;;;;;;;5.77;5.33;;;;;;;;;;4964419;28;20458;-79
2023/05/08 03:53:56;;;;;;;6.53;5.93;;;;;;;;;;4961348;28;20220;-79
2023/05/08 03:56:23;;;;;;;6.40;5.80;;;;;;;;;;4978948;28;20228;-80
2023/05/08 03:59:27;;;;;;;6.47;5.87;;;;;;;;;;4945946;28;20228;-79
2023/05/08 04:01:59;;;;;;;6.07;5.57;;;;;;;;;;4928424;28;20752;-80
2023/05/08 04:04:40;;;;;;;6.13;5.63;;;;;;;;;;4995387;28;20221;-78
2023/05/08 04:07:23;;;;;;;6.17;5.67;;;;;;;;;;4978514;28;20234;-80
2023/05/08 04:09:48;;;;;;;6.27;5.77;;;;;;;;;;4947764;28;20221;-79
2023/05/08 04:12:17;;;;;;;6.10;5.60;;;;;;;;;;4991488;28;20222;-79
2023/05/08 04:14:52;;;;;;;5.70;5.30;;;;;;;;;;4975654;28;20225;-80
2023/05/08 04:17:26;;;;;;;5.87;5.37;;;;;;;;;;4963309;28;20340;-79
2023/05/08 04:19:57;;;;;;;5.33;4.93;;;;;;;;;;4978226;28;20256;-77
2023/05/08 04:22:23;;;;;;;6.33;5.67;;;;;;;;;;4984861;28;20235;-78
2023/05/08 04:24:49;;;;;;;6.07;5.27;;;;;;;;;;4995464;28;20215;-77
2023/05/08 04:27:15;;;;;;;5.90;5.40;;;;;;;;;;4973892;28;20625;-79
2023/05/08 04:29:41;;;;;;;5.90;5.37;;;;;;;;;;4983769;28;20229;-80
2023/05/08 04:32:07;;;;;;;6.00;5.50;;;;;;;;;;4944882;28;20943;-81
2023/05/08 04:34:35;;;;;;;5.60;5.20;;;;;;;;;;4963377;28;20248;-77
2023/05/08 04:37:01;;;;;;;6.00;5.50;;;;;;;;;;4982551;28;20240;-80
2023/05/08 04:39:27;;;;;;;5.57;5.10;;;;;;;;;;4964728;28;20231;-80
2023/05/08 04:41:54;;;;;;;5.93;5.53;;;;;;;;;;4944003;28;20299;-80
2023/05/08 04:44:20;;;;;;;5.90;5.30;;;;;;;;;;4979422;28;20253;-78
2023/05/08 04:46:46;;;;;;;5.90;5.27;;;;;;;;;;4963144;28;20220;-78
2023/05/08 04:49:12;;;;;;;5.70;5.20;;;;;;;;;;4949532;28;20228;-79
2023/05/08 04:51:40;;;;;;;5.73;5.23;;;;;;;;;;4948191;28;20315;-80
2023/05/08 04:54:08;;;;;;;5.40;5.00;;;;;;;;;;4949474;28;20248;-78
2023/05/08 04:56:34;;;;;;;5.33;4.83;;;;;;;;;;4992951;28;20228;-79
2023/05/08 04:59:00;;;;;;;5.17;4.77;;;;;;;;;;4998008;28;20213;-79
2023/05/08 05:01:26;;;;;;;5.37;4.97;;;;;;;;;;4976661;28;20889;-81
2023/05/08 05:03:52;;;;;;;5.10;4.67;;;;;;;;;;4966192;28;20217;-80
2023/05/08 05:06:17;;;;;;;5.27;4.83;;;;;;;;;;4994143;28;20225;-79
2023/05/08 05:08:43;;;;;;;5.33;4.87;;;;;;;;;;4997654;28;20797;-78
2023/05/08 05:11:09;;;;;;;5.10;4.67;;;;;;;;;;4982654;28;20235;-80
2023/05/08 05:13:35;;;;;;;4.97;4.57;;;;;;;;;;4994370;28;20233;-79
2023/05/08 05:16:00;;;;;;;5.03;4.63;;;;;;;;;;4978196;28;20225;-80
2023/05/08 05:18:28;;;;;;;5.30;4.90;;;;;;;;;;4963655;28;20279;-81
2023/05/08 05:20:56;;;;;;;4.80;4.50;;;;;;;;;;4961831;28;20229;-79
2023/05/08 05:23:22;;;;;;;5.50;5.10;;;;;;;;;;4953101;28;20309;-80
2023/05/08 05:25:48;;;;;;;6.07;4.80;;;;;;;;;;4977720;28;20286;-81
2023/05/08 05:28:13;;;;;;;4.90;4.50;;;;;;;;;;4982683;28;20282;-77
2023/05/08 05:30:39;;;;;;;5.50;5.10;;;;;;;;;;4960749;28;20752;-80
2023/05/08 05:33:05;;;;;;;5.10;4.70;;;;;;;;;;4978646;28;20225;-78
2023/05/08 05:35:30;;;;;;;5.20;4.70;;;;;;;;;;4977993;28;20225;-81
2023/05/08 05:37:56;;;;;;;8.40;5.10;;;;;;;;;;4983051;28;20227;-78
2023/05/08 05:40:21;;;;;;;4.70;4.30;;;;;;;;;;4948061;28;20236;-80
2023/05/08 05:42:48;;;;;;;5.40;4.90;;;;;;;;;;4983745;28;20275;-78
2023/05/08 05:45:17;;;;;;;5.30;4.90;;;;;;;;;;4994330;28;20229;-79
2023/05/08 05:47:48;;;;;;;5.83;5.23;;;;;;;;;;4944844;28;20376;-78
2023/05/08 05:50:21;;;;;;;5.70;5.20;;;;;;;;;;4973919;28;20217;-79
2023/05/08 05:52:50;;;;;;;5.17;4.77;;;;;;;;;;4985875;28;20260;-79
2023/05/08 05:55:16;;;;;;;5.97;5.37;;;;;;;;;;4946168;28;20226;-80
2023/05/08 05:57:43;;;;;;;5.53;5.03;;;;;;;;;;4965856;28;20216;-79
2023/05/08 06:00:14;;;;;;;4.87;4.57;;;;;;;;;;4997909;28;20323;-80
2023/05/08 06:02:47;;;;;;;5.97;5.27;;;;;;;;;;4993827;28;20246;-78
2023/05/08 06:05:17;;;;;;;5.60;5.10;;;;;;;;;;4995111;28;20307;-79
2023/05/08 06:07:43;;;;;;;5.70;5.10;;;;;;;;;;4952788;28;20223;-79
2023/05/08 06:10:09;;;;;;;6.20;4.53;;;;;;;;;;4984147;28;20224;-80
2023/05/08 06:12:37;;;;;;;5.00;4.60;;;;;;;;;;4952086;28;20232;-79
2023/05/08 06:15:04;;;;;;;5.43;4.93;;;;;;;;;;4949786;28;20221;-80
2023/05/08 06:17:30;;;;;;;5.43;4.93;;;;;;;;;;4983053;28;20225;-79
2023/05/08 06:19:56;;;;;;;5.37;4.67;;;;;;;;;;4979000;28;20239;-79
2023/05/08 06:22:28;;;;;;;4.77;4.37;;;;;;;;;;4981070;28;20223;-80
2023/05/08 06:24:53;;;;;;;5.00;4.50;;;;;;;;;;4982199;28;20280;-79
2023/05/08 06:27:19;;;;;;;4.70;4.40;;;;;;;;;;4965363;28;20674;-80
2023/05/08 06:29:47;;;;;;;4.70;4.27;;;;;;;;;;4979451;28;20251;-78
2023/05/08 06:32:12;;;;;;;5.30;4.80;;;;;;;;;;4977205;28;20339;-80
2023/05/08 06:34:38;;;;;;;5.17;4.73;;;;;;;;;;4979075;28;20220;-80
2023/05/08 06:37:03;;;;;;;5.43;4.57;;;;;;;;;;4978267;28;20728;-80
2023/05/08 06:39:29;;;;;;;4.80;4.40;;;;;;;;;;4993294;28;20240;-81
2023/05/08 06:41:57;;;;;;;4.60;4.20;;;;;;;;;;5001954;28;20217;-82
2023/05/08 06:44:28;;;;;;;5.13;4.73;;;;;;;;;;4951346;28;20221;-78
2023/05/08 06:46:54;;;;;;;6.40;4.67;;;;;;;;;;4995245;28;20228;-79
2023/05/08 06:49:22;;;;;;;4.57;4.17;;;;;;;;;;4963425;28;20287;-80
2023/05/08 06:51:47;;;;;;;4.83;4.43;;;;;;;;;;4968201;28;20240;-80
2023/05/08 06:54:13;;;;;;;5.20;4.70;;;;;;;;;;4980045;28;20213;-81
2023/05/08 06:56:41;;;;;;;4.30;4.00;;;;;;;;;;4964358;28;20214;-80
2023/05/08 06:59:06;;;;;;;5.47;4.50;;;;;;;;;;4950760;28;20217;-79
2023/05/08 07:01:32;;;;;;;4.80;4.40;;;;;;;;;;4982636;28;20232;-78
2023/05/08 07:03:57;;;;;;;5.33;4.90;;;;;;;;;;4965809;28;20225;-81
2023/05/08 07:06:26;;;;;;;4.80;4.30;;;;;;;;;;4962615;28;20228;-80
2023/05/08 07:08:54;;;;;;;4.83;4.43;;;;;;;;;;4963523;28;20240;-77
2023/05/08 07:11:20;;;;;;;5.03;4.63;;;;;;;;;;4978814;28;20294;-77
2023/05/08 07:13:47;;;;;;;7.63;4.80;;;;;;;;;;4977312;28;20275;-79
2023/05/08 07:16:13;;;;;;;5.00;4.60;;;;;;;;;;4992159;28;20291;-78
2023/05/08 07:18:38;;;;;;;4.70;4.37;;;;;;;;;;4980587;28;20244;-77
2023/05/08 07:21:04;;;;;;;4.83;4.43;;;;;;;;;;4949356;28;20459;-78
2023/05/08 07:23:30;;;;;;;5.40;4.90;;;;;;;;;;4967589;28;20225;-79
2023/05/08 07:25:58;;;;;;;4.97;4.47;;;;;;;;;;4982816;28;20221;-78
2023/05/08 07:28:24;;;;;;;5.10;4.70;;;;;;;;;;4997576;28;20974;-79
2023/05/08 07:30:51;;;;;;;5.30;4.90;;;;;;;;;;4969315;28;20316;-77
2023/05/08 07:33:19;;;;;;;5.00;4.60;;;;;;;;;;4982197;28;20240;-78
2023/05/08 07:35:45;;;;;;;5.20;4.80;;;;;;;;;;4971152;28;20994;-79
2023/05/08 07:38:12;;;;;;;4.90;4.50;;;;;;;;;;4954096;28;20232;-80
2023/05/08 07:40:38;;;;;;;5.00;4.70;;;;;;;;;;4988792;28;20240;-79
2023/05/08 07:43:03;;;;;;;4.90;4.50;;;;;;;;;;4980212;28;20217;-78
2023/05/08 07:45:29;;;;;;;4.90;4.50;;;;;;;;;;4964574;28;20615;-84
2023/05/08 07:47:59;;;;;;;5.10;4.70;;;;;;;;;;4948639;28;20228;-81
2023/05/08 07:50:25;;;;;;;5.27;4.87;;;;;;;;;;4999166;28;20253;-80
2023/05/08 07:52:51;;;;;;;5.90;5.30;;;;;;;;;;4981590;28;20265;-81
2023/05/08 07:55:17;;;;;;;5.80;5.27;;;;;;;;;;4962208;28;20226;-80
2023/05/08 07:57:43;;;;;;;5.20;4.80;;;;;;;;;;4979994;28;20449;-81
2023/05/08 08:00:10;;;;;;;5.87;5.17;;;;;;;;;;4965006;28;20730;-80
2023/05/08 08:02:39;;;;;;;5.23;4.73;;;;;;;;;;4999528;28;20229;-81
2023/05/08 08:05:10;;;;;;;4.87;4.37;;;;;;;;;;4963338;28;20237;-81
2023/05/08 08:07:36;;;;;;;4.97;4.57;;;;;;;;;;4984126;28;20685;-82
2023/05/08 08:10:03;;;;;;;5.10;4.60;;;;;;;;;;4963939;28;20278;-80
2023/05/08 08:12:29;;;;;;;5.15;4.75;;;;;;;;;;4998739;28;20247;-79
2023/05/08 08:14:57;;;;;;;4.57;4.28;;;;;;;;;;4984982;28;20783;-82
2023/05/08 08:17:23;;;;;;;5.03;4.53;;;;;;;;;;4967707;28;20228;-78
2023/05/08 08:19:48;;;;;;;4.68;4.25;;;;;;;;;;4969821;28;20235;-79
2023/05/08 08:22:14;;;;;;;4.75;4.45;;;;;;;;;;4948316;28;20216;-81
2023/05/08 08:24:40;;;;;;;4.60;4.30;;;;;;;;;;4983534;28;20225;-80
2023/05/08 08:27:05;;;;;;;4.53;4.10;;;;;;;;;;4975272;28;20218;-79
2023/05/08 08:29:31;;;;;;;4.93;4.53;;;;;;;;;;4980553;28;20724;-83
2023/05/08 08:31:59;;;;;;;4.75;4.35;;;;;;;;;;4964170;28;20248;-82
2023/05/08 08:34:25;;;;;;;4.88;4.47;;;;;;;;;;4949876;28;20216;-79
2023/05/08 08:36:50;;;;;;;4.85;4.50;;;;;;;;;;4982207;28;20225;-81
2023/05/08 08:39:19;;;;;;;4.75;4.28;;;;;;;;;;4994618;28;20222;-80
2023/05/08 08:41:44;;;;;;;4.43;4.13;;;;;;;;;;4950048;28;20253;-82
2023/05/08 08:44:14;;;;;;;4.40;4.10;;;;;;;;;;4965092;28;20217;-81
2023/05/08 08:46:53;;;;;;;4.65;4.25;;;;;;;;;;4968775;28;20213;-81
2023/05/08 08:49:24;;;;;;;4.40;4.00;;;;;;;;;;4963153;28;21140;-80
2023/05/08 08:51:54;;;;;;;4.32;4.00;;;;;;;;;;4954426;28;20224;-81
2023/05/08 08:54:24;;;;;;;4.28;3.88;;;;;;;;;;4970232;28;20676;-82
2023/05/08 08:56:52;;;;;;;4.15;3.85;;;;;;;;;;4997546;28;20225;-82
2023/05/08 08:59:17;;;;;;;4.30;4.00;;;;;;;;;;4992250;28;20217;-81
2023/05/08 09:01:54;;;;;;;4.10;3.70;;;;;;;;;;4978886;28;20248;-79
2023/05/08 09:04:26;;;;;;;4.15;3.75;;;;;;;;;;4952112;28;20313;-83
2023/05/08 09:06:54;;;;;;;4.18;3.80;;;;;;;;;;4978608;28;20225;-81
2023/05/08 09:09:19;;;;;;;3.97;3.67;;;;;;;;;;4968013;28;20221;-81
2023/05/08 09:11:47;;;;;;;4.78;3.42;;;;;;;;;;4996378;28;20672;-80
2023/05/08 09:14:12;;;;;;;3.80;3.50;;;;;;;;;;4981269;28;20295;-81
2023/05/08 09:16:38;;;;;;;3.70;3.40;;;;;;;;;;4957753;28;20218;-79
2023/05/08 09:19:04;;;;;;;3.85;3.55;;;;;;;;;;4957161;28;20221;-80
2023/05/08 09:21:30;;;;;;;3.70;3.40;;;;;;;;;;4959618;28;20303;-81
2023/05/08 09:24:02;;;;;;;3.50;3.20;;;;;;;;;;4977447;28;20297;-80
2023/05/08 09:26:38;;;;;;;3.70;3.17;;;;;;;;;;4991439;28;20224;-82
2023/05/08 09:29:12;;;;;;;4.40;3.50;;;;;;;;;;4977418;28;20311;-82
2023/05/08 09:31:39;;;;;;;3.58;3.28;;;;;;;;;;4994205;28;20228;-82
2023/05/08 09:34:08;;;;;;;3.70;3.40;;;;;;;;;;4972024;28;20938;-78
2023/05/08 09:36:38;;;;;;;3.40;3.10;;;;;;;;;;4975942;28;20218;-83
2023/05/08 09:39:07;;;;;;;13.32;3.78;;;;;;;;;;4989703;28;20235;-84
2023/05/08 09:41:32;;;;;;;3.75;3.45;;;;;;;;;;4975267;28;20222;-80
2023/05/08 09:44:05;;;;;;;3.80;3.50;;;;;;;;;;4992954;28;20263;-79
2023/05/08 09:46:34;;;;;;;3.40;3.05;;;;;;;;;;5001584;28;20229;-80
2023/05/08 09:49:02;;;;;;;3.35;3.05;;;;;;;;;;4949184;28;20785;-79
2023/05/08 09:51:29;;;;;;;3.10;2.80;;;;;;;;;;4960170;28;20237;-78
2023/05/08 09:53:56;;;;;;;3.05;2.75;;;;;;;;;;4980263;28;20232;-82
2023/05/08 09:56:35;;;;;;;3.60;3.30;;;;;;;;;;4958940;28;20218;-83
2023/05/08 09:59:02;;;;;;;3.30;3.10;;;;;;;;;;4954600;28;20227;-82
2023/05/08 10:01:27;;;;;;;3.10;2.90;;;;;;;;;;4981175;28;20316;-79
2023/05/08 10:03:55;;;;;;;3.50;3.20;;;;;;;;;;4995574;28;20419;-82
2023/05/08 10:06:20;;;;;;;3.10;2.80;;;;;;;;;;4972056;28;20758;-82
2023/05/08 10:08:47;;;;;;;3.63;3.22;;;;;;;;;;4959880;28;20237;-83
2023/05/08 10:11:15;;;;;;;3.17;2.90;;;;;;;;;;4976198;28;20225;-82
2023/05/08 10:13:41;;;;;;;3.28;3.08;;;;;;;;;;4976606;28;20237;-79
2023/05/08 10:16:06;;;;;;;3.10;2.90;;;;;;;;;;4963627;28;20221;-80
2023/05/08 10:18:35;;;;;;;3.25;3.05;;;;;;;;;;4976805;28;20226;-79
2023/05/08 10:21:01;;;;;;;3.33;3.13;;;;;;;;;;4963751;28;20229;-83
2023/05/08 10:23:27;;;;;;;3.13;2.92;;;;;;;;;;4962435;28;20221;-81
2023/05/08 10:25:55;;;;;;;3.38;2.83;;;;;;;;;;4980892;28;20744;-81
2023/05/08 10:28:36;;;;;;;3.20;2.90;;;;;;;;;;4948806;28;20978;-83
2023/05/08 10:31:02;;;;;;;3.05;2.75;;;;;;;;;;4982886;28;20283;-80
2023/05/08 10:33:31;;;;;;;2.70;2.50;;;;;;;;;;4956182;28;20233;-80
2023/05/08 10:35:57;;;;;;;2.72;2.50;;;;;;;;;;4945676;28;20235;-82
2023/05/08 10:38:22;;;;;;;2.42;2.30;;;;;;;;;;4975439;28;20230;-79
2023/05/08 10:40:49;;;;;;;2.45;2.30;;;;;;;;;;4959861;28;20231;-81
2023/05/08 10:43:15;;;;;;;2.88;2.67;;;;;;;;;;4991577;28;20245;-81
2023/05/08 10:45:44;;;;;;;2.53;2.33;;;;;;;;;;4943972;28;20595;-81
2023/05/08 10:48:19;;;;;;;3.08;2.38;;;;;;;;;;4995293;28;20232;-79
2023/05/08 10:50:55;;;;;;;2.30;2.10;;;;;;;;;;4994231;28;20713;-80
2023/05/08 10:53:26;;;;;;;2.42;2.30;;;;;;;;;;4976473;28;20241;-81
2023/05/08 10:55:51;;;;;;;2.50;2.30;;;;;;;;;;4994018;28;20597;-80
2023/05/08 10:58:28;;;;;;;3.08;2.05;;;;;;;;;;4965698;28;20225;-78
2023/05/08 11:01:04;;;;;;;2.20;2.00;;;;;;;;;;4994370;28;20224;-79
2023/05/08 11:03:30;;;;;;;2.08;1.88;;;;;;;;;;4996555;28;20286;-80
2023/05/08 11:05:57;;;;;;;2.55;1.80;;;;;;;;;;4960557;28;20240;-79
2023/05/08 11:08:24;;;;;;;1.90;1.70;;;;;;;;;;4983102;28;22814;-79
2023/05/08 11:11:18;;;;;;;1.63;1.52;;;;;;;;;;4960624;28;20225;-80
2023/05/08 11:13:51;;;;;;;2.90;1.60;;;;;;;;;;4977253;28;20368;-79
2023/05/08 11:16:17;;;;;;;1.70;1.60;;;;;;;;;;4959904;28;20942;-80
2023/05/08 11:19:19;;;;;;;3.28;1.85;;;;;;;;;;4975443;28;20221;-79
2023/05/08 11:22:10;;;;;;;1.92;1.73;;;;;;;;;;4977592;28;20221;-80
2023/05/08 11:24:36;;;;;;;1.80;1.70;;;;;;;;;;4995667;28;20227;-78
2023/05/08 11:27:02;;;;;;;2.08;1.95;;;;;;;;;;4981819;28;20213;-80
2023/05/08 11:29:30;;;;;;;2.13;2.03;;;;;;;;;;4951708;28;20217;-78
2023/05/08 11:31:55;;;;;;;2.45;1.90;;;;;;;;;;4980962;28;20982;-78
2023/05/08 11:34:47;;;;;;;2.63;2.13;;;;;;;;;;4959061;28;20718;-80
2023/05/08 11:37:22;;;;;;;2.45;2.25;;;;;;;;;;4996162;28;20291;-79
2023/05/08 11:39:50;;;;;;;1.55;1.45;;;;;;;;;;4961112;28;20214;-78
2023/05/08 11:42:30;;;;;;;1.77;1.67;;;;;;;;;;4999189;28;20224;-79
2023/05/08 11:45:09;;;;;;;2.00;1.80;;;;;;;;;;4996116;28;20213;-77
2023/05/08 11:47:40;;;;;;;1.67;1.58;;;;;;;;;;4979030;28;20217;-81
2023/05/08 11:50:15;;;;;;;1.73;1.60;;;;;;;;;;4978733;28;20284;-78
2023/05/08 11:52:43;;;;;;;2.35;1.52;;;;;;;;;;4963258;28;20236;-80
2023/05/08 11:55:14;;;;;;;1.58;1.48;;;;;;;;;;4961750;28;20400;-77
2023/05/08 11:57:40;;;;;;;2.20;1.60;;;;;;;;;;4982367;28;20233;-78
2023/05/08 12:00:11;;;;;;;2.03;1.83;;;;;;;;;;4994974;28;20420;-79
2023/05/08 12:02:40;;;;;;;2.20;1.80;;;;;;;;;;4938850;28;20592;-79
2023/05/08 12:05:07;;;;;;;1.80;1.70;;;;;;;;;;5012334;28;20222;-79
2023/05/08 12:07:32;;;;;;;1.90;1.80;;;;;;;;;;4955165;28;20222;-80
2023/05/08 12:10:01;;;;;;;2.00;1.88;;;;;;;;;;4976093;28;20299;-79
2023/05/08 12:12:40;;;;;;;2.55;1.60;;;;;;;;;;4980764;28;20772;-80
2023/05/08 12:15:14;;;;;;;3.17;1.90;;;;;;;;;;4994769;28;20328;-78
2023/05/08 12:17:42;;;;;;;1.83;1.70;;;;;;;;;;4943524;28;20218;-77
2023/05/08 12:20:26;;;;;;;1.80;1.70;;;;;;;;;;4956089;28;20221;-77
2023/05/08 12:22:52;;;;;;;2.20;2.00;;;;;;;;;;4977425;28;20221;-78
2023/05/08 12:25:17;;;;;;;1.85;1.75;;;;;;;;;;4978653;28;20230;-78
2023/05/08 12:27:43;;;;;;;2.20;2.00;;;;;;;;;;4976984;28;20225;-78
2023/05/08 12:30:10;;;;;;;2.20;1.95;;;;;;;;;;4962855;28;20766;-77
2023/05/08 12:32:38;;;;;;;2.13;1.92;;;;;;;;;;4995760;28;20221;-80
2023/05/08 12:35:08;;;;;;;2.10;2.00;;;;;;;;;;4966914;28;20225;-80
2023/05/08 12:37:33;;;;;;;1.77;1.67;;;;;;;;;;4961801;28;20229;-79
2023/05/08 12:40:01;;;;;;;2.35;1.90;;;;;;;;;;4977177;28;20222;-78
2023/05/08 12:42:43;;;;;;;2.35;2.03;;;;;;;;;;4980749;28;20681;-78
2023/05/08 12:45:18;;;;;;;2.45;2.00;;;;;;;;;;4991149;28;20266;-80
2023/05/08 12:47:49;;;;;;;2.50;1.95;;;;;;;;;;4961314;28;20216;-79
2023/05/08 12:50:17;;;;;;;3.45;2.10;;;;;;;;;;4980911;28;20282;-77
2023/05/08 12:52:45;;;;;;;1.90;1.70;;;;;;;;;;4956458;28;20244;-79
2023/05/08 12:55:26;;;;;;;2.42;1.90;;;;;;;;;;4991973;28;20694;-78
2023/05/08 12:58:11;;;;;;;2.08;1.88;;;;;;;;;;4975274;28;20318;-78
2023/05/08 13:00:44;;;;;;;2.10;2.00;;;;;;;;;;4943609;28;20312;-78
2023/05/08 13:03:11;;;;;;;3.95;1.80;;;;;;;;;;4991127;28;20229;-80
2023/05/08 13:05:40;;;;;;;2.05;1.80;;;;;;;;;;4975358;28;20235;-77
2023/05/08 13:08:09;;;;;;;2.10;2.00;;;;;;;;;;4953172;28;20690;-78
2023/05/08 13:10:48;;;;;;;2.25;2.10;;;;;;;;;;4961461;28;20227;-78
2023/05/08 13:13:16;;;;;;;1.90;1.80;;;;;;;;;;4975271;28;20241;-81
2023/05/08 13:15:41;;;;;;;2.58;1.80;;;;;;;;;;4976222;28;20233;-78
2023/05/08 13:18:10;;;;;;;5.50;1.70;;;;;;;;;;4962737;28;20226;-79
2023/05/08 13:20:35;;;;;;;2.58;1.80;;;;;;;;;;4961269;28;20247;-79
2023/05/08 13:23:01;;;;;;;1.75;1.63;;;;;;;;;;4979236;28;20212;-78
2023/05/08 13:25:27;;;;;;;1.60;1.50;;;;;;;;;;4976961;28;20229;-78
2023/05/08 13:27:53;;;;;;;1.75;1.65;;;;;;;;;;4977687;28;20216;-78
2023/05/08 13:30:20;;;;;;;1.60;1.50;;;;;;;;;;4978464;28;21025;-79
2023/05/08 13:32:51;;;;;;;1.80;1.65;;;;;;;;;;4977707;28;20249;-79
2023/05/08 13:35:19;;;;;;;1.73;1.60;;;;;;;;;;4976808;28;20291;-78
2023/05/08 13:37:45;;;;;;;1.70;1.60;;;;;;;;;;4974052;28;20245;-78
2023/05/08 13:40:11;;;;;;;2.35;1.50;;;;;;;;;;4980990;28;20333;-79
2023/05/08 13:42:36;;;;;;;2.90;1.67;;;;;;;;;;4999483;28;20217;-78
2023/05/08 13:45:05;;;;;;;3.13;1.45;;;;;;;;;;5012921;28;20272;-78
2023/05/08 13:47:30;;;;;;;2.33;1.80;;;;;;;;;;4993513;28;20224;-78
2023/05/08 13:49:56;;;;;;;1.65;1.50;;;;;;;;;;4999873;28;20307;-80
2023/05/08 13:52:22;;;;;;;1.80;1.70;;;;;;;;;;4995585;28;20225;-78
2023/05/08 13:54:49;;;;;;;2.00;1.80;;;;;;;;;;4960123;28;20291;-78
2023/05/08 13:57:15;;;;;;;1.63;1.52;;;;;;;;;;4978832;28;20252;-79
2023/05/08 13:59:41;;;;;;;2.05;1.70;;;;;;;;;;4977424;28;20220;-77
2023/05/08 14:02:06;;;;;;;2.38;2.05;;;;;;;;;;4978943;28;20667;-81
2023/05/08 14:04:32;;;;;;;2.72;1.80;;;;;;;;;;4948524;28;20255;-78
2023/05/08 14:06:58;;;;;;;3.13;1.95;;;;;;;;;;5001771;28;20224;-77
2023/05/08 14:09:23;;;;;;;2.20;2.00;;;;;;;;;;4982850;28;20259;-77
2023/05/08 14:11:49;;;;;;;1.95;1.80;;;;;;;;;;4996153;28;20239;-79
2023/05/08 14:14:14;;;;;;;2.10;2.00;;;;;;;;;;4966423;28;20271;-79
2023/05/08 14:16:40;;;;;;;1.77;1.67;;;;;;;;;;4980519;28;20213;-81
2023/05/08 14:19:10;;;;;;;1.90;1.80;;;;;;;;;;4977623;28;20316;-80
2023/05/08 14:21:36;;;;;;;2.05;1.75;;;;;;;;;;4960169;28;21409;-78
2023/05/08 14:24:01;;;;;;;1.77;1.67;;;;;;;;;;4946508;28;20213;-78
2023/05/08 14:26:27;;;;;;;2.22;1.88;;;;;;;;;;4992286;28;20291;-77
2023/05/08 14:28:52;;;;;;;1.90;1.63;;;;;;;;;;4949868;28;20221;-78
2023/05/08 14:31:25;;;;;;;2.13;1.83;;;;;;;;;;4961945;28;20217;-77
2023/05/08 14:33:53;;;;;;;1.92;1.60;;;;;;;;;;4960846;28;20233;-78
2023/05/08 14:36:19;;;;;;;1.70;1.50;;;;;;;;;;4979126;28;20635;-79
2023/05/08 14:38:44;;;;;;;2.78;1.70;;;;;;;;;;4962021;28;20221;-78
2023/05/08 14:41:10;;;;;;;2.63;1.67;;;;;;;;;;4980537;28;20224;-79
2023/05/08 14:43:35;;;;;;;2.08;1.50;;;;;;;;;;4981972;28;20228;-78
2023/05/08 14:46:01;;;;;;;2.67;1.50;;;;;;;;;;4966535;28;20219;-77
2023/05/08 14:48:28;;;;;;;2.33;1.52;;;;;;;;;;4985226;28;20259;-77
2023/05/08 14:50:55;;;;;;;2.55;1.50;;;;;;;;;;4978439;28;20713;-77
2023/05/08 14:53:24;;;;;;;3.15;1.70;;;;;;;;;;4976248;28;20234;-78
2023/05/08 14:55:49;;;;;;;2.55;1.60;;;;;;;;;;4986396;28;20221;-75
2023/05/08 14:58:15;;;;;;;2.22;1.73;;;;;;;;;;4986449;28;20906;-78